sensor_id;sensor_type;location;lat;lon;timestamp;pressure;altitude;pressure_sealevel;temperature;humidity
54407;BME280;40313;50.308;30.374;2022-12-29T00:00:08;100221.41;;;-0.24;100.00
54407;BME280;40313;50.308;30.374;2022-12-29T00:02:34;100214.56;;;-0.24;100.00
54407;BME280;40313;50.308;30.374;2022-12-29T00:05:01;100213.69;;;-0.26;100.00
54407;BME280;40313;50.308;30.374;2022-12-29T00:07:28;100205.13;;;-0.22;100.00
54407;BME280;40313;50.308;30.374;2022-12-29T00:09:55;100202.56;;;-0.22;100.00
54407;BME280;40313;50.308;30.374;2022-12-29T00:12:22;100205.13;;;-0.22;100.00
54407;BME280;40313;50.308;30.374;2022-12-29T00:14:48;100189.75;;;-0.22;100.00
54407;BME280;40313;50.308;30.374;2022-12-29T00:17:32;100196.59;;;-0.21;100.00
54407;BME280;40313;50.308;30.374;2022-12-29T00:19:59;100200.00;;;-0.20;100.00
54407;BME280;40313;50.308;30.374;2022-12-29T00:22:43;100196.59;;;-0.22;100.00
54407;BME280;40313;50.308;30.374;2022-12-29T00:25:28;100210.28;;;-0.19;100.00
54407;BME280;40313;50.308;30.374;2022-12-29T00:28:12;100205.16;;;-0.19;100.00
54407;BME280;40313;50.308;30.374;2022-12-29T00:30:59;100211.13;;;-0.16;100.00
54407;BME280;40313;50.308;30.374;2022-12-29T00:33:43;100204.25;;;-0.14;100.00
54407;BME280;40313;50.308;30.374;2022-12-29T00:36:30;100198.28;;;-0.13;100.00
54407;BME280;40313;50.308;30.374;2022-12-29T00:38:59;100194.88;;;-0.12;100.00
54407;BME280;40313;50.308;30.374;2022-12-29T00:41:46;100194.03;;;-0.11;100.00
54407;BME280;40313;50.308;30.374;2022-12-29T00:44:31;100186.31;;;-0.10;100.00
54407;BME280;40313;50.308;30.374;2022-12-29T00:46:57;100177.72;;;-0.07;100.00
54407;BME280;40313;50.308;30.374;2022-12-29T00:49:27;100174.31;;;-0.06;100.00
54407;BME280;40313;50.308;30.374;2022-12-29T00:51:57;100174.34;;;-0.08;100.00
54407;BME280;40313;50.308;30.374;2022-12-29T00:54:24;100177.75;;;-0.06;100.00
54407;BME280;40313;50.308;30.374;2022-12-29T00:56:52;100173.47;;;-0.05;100.00
54407;BME280;40313;50.308;30.374;2022-12-29T00:59:19;100169.16;;;-0.03;100.00
54407;BME280;40313;50.308;30.374;2022-12-29T01:01:46;100167.47;;;-0.01;100.00
54407;BME280;40313;50.308;30.374;2022-12-29T01:04:13;100159.78;;;-0.03;100.00
54407;BME280;40313;50.308;30.374;2022-12-29T01:06:40;100154.69;;;-0.06;100.00
54407;BME280;40313;50.308;30.374;2022-12-29T01:09:07;100152.09;;;-0.10;100.00
54407;BME280;40313;50.308;30.374;2022-12-29T01:11:53;100150.44;;;-0.21;100.00
54407;BME280;40313;50.308;30.374;2022-12-29T01:14:20;100156.47;;;-0.29;100.00
54407;BME280;40313;50.308;30.374;2022-12-29T01:16:47;100161.63;;;-0.36;100.00
54407;BME280;40313;50.308;30.374;2022-12-29T01:19:14;100164.16;;;-0.39;100.00
54407;BME280;40313;50.308;30.374;2022-12-29T01:21:41;100154.81;;;-0.41;100.00
54407;BME280;40313;50.308;30.374;2022-12-29T01:24:08;100151.38;;;-0.42;100.00
54407;BME280;40313;50.308;30.374;2022-12-29T01:26:34;100154.81;;;-0.41;100.00
54407;BME280;40313;50.308;30.374;2022-12-29T01:29:02;100148.81;;;-0.42;100.00
54407;BME280;40313;50.308;30.374;2022-12-29T01:31:29;100139.44;;;-0.43;100.00
54407;BME280;40313;50.308;30.374;2022-12-29T01:33:55;100139.44;;;-0.44;100.00
54407;BME280;40313;50.308;30.374;2022-12-29T01:36:22;100132.59;;;-0.44;100.00
54407;BME280;40313;50.308;30.374;2022-12-29T01:38:48;100128.31;;;-0.46;100.00
54407;BME280;40313;50.308;30.374;2022-12-29T01:41:16;100123.25;;;-0.56;100.00
54407;BME280;40313;50.308;30.374;2022-12-29T01:43:45;100118.13;;;-0.65;100.00
54407;BME280;40313;50.308;30.374;2022-12-29T01:46:18;100131.84;;;-0.77;100.00
54407;BME280;40313;50.308;30.374;2022-12-29T01:48:51;100122.44;;;-0.90;100.00
54407;BME280;40313;50.308;30.374;2022-12-29T01:51:18;100125.88;;;-1.03;100.00
54407;BME280;40313;50.308;30.374;2022-12-29T01:53:46;100125.03;;;-1.15;100.00
54407;BME280;40313;50.308;30.374;2022-12-29T01:56:15;100116.50;;;-1.25;100.00
54407;BME280;40313;50.308;30.374;2022-12-29T01:58:46;100116.53;;;-1.34;100.00
54407;BME280;40313;50.308;30.374;2022-12-29T02:01:18;100122.50;;;-1.44;100.00
54407;BME280;40313;50.308;30.374;2022-12-29T02:03:46;100115.66;;;-1.50;100.00
54407;BME280;40313;50.308;30.374;2022-12-29T02:06:16;100123.31;;;-1.58;100.00
54407;BME280;40313;50.308;30.374;2022-12-29T02:08:46;100113.09;;;-1.64;100.00
54407;BME280;40313;50.308;30.374;2022-12-29T02:11:13;100115.66;;;-1.70;100.00
54407;BME280;40313;50.308;30.374;2022-12-29T02:13:40;100119.06;;;-1.72;100.00
54407;BME280;40313;50.308;30.374;2022-12-29T02:16:09;100108.81;;;-1.77;100.00
54407;BME280;40313;50.308;30.374;2022-12-29T02:18:51;100107.09;;;-1.77;100.00
54407;BME280;40313;50.308;30.374;2022-12-29T02:21:53;100100.28;;;-1.75;100.00
54407;BME280;40313;50.308;30.374;2022-12-29T02:27:44;100096.88;;;-1.70;100.00
54407;BME280;40313;50.308;30.374;2022-12-29T02:30:32;100102.84;;;-1.61;100.00
54407;BME280;40313;50.308;30.374;2022-12-29T02:33:04;100101.16;;;-1.48;100.00
54407;BME280;40313;50.308;30.374;2022-12-29T02:35:43;100090.94;;;-1.34;100.00
54407;BME280;40313;50.308;30.374;2022-12-29T02:38:17;100088.34;;;-1.23;100.00
54407;BME280;40313;50.308;30.374;2022-12-29T02:40:53;100090.91;;;-1.12;100.00
54407;BME280;40313;50.308;30.374;2022-12-29T02:43:25;100089.19;;;-1.04;100.00
54407;BME280;40313;50.308;30.374;2022-12-29T02:45:57;100077.22;;;-0.99;100.00
54407;BME280;40313;50.308;30.374;2022-12-29T02:48:28;100073.78;;;-0.92;100.00
54407;BME280;40313;50.308;30.374;2022-12-29T02:51:00;100064.41;;;-0.88;100.00
54407;BME280;40313;50.308;30.374;2022-12-29T02:53:29;100062.66;;;-0.84;100.00
54407;BME280;40313;50.308;30.374;2022-12-29T02:56:13;100056.69;;;-0.83;100.00
54407;BME280;40313;50.308;30.374;2022-12-29T02:58:40;100060.09;;;-0.84;100.00
54407;BME280;40313;50.308;30.374;2022-12-29T03:01:22;100057.53;;;-0.84;100.00
54407;BME280;40313;50.308;30.374;2022-12-29T03:04:04;100058.44;;;-0.85;100.00
54407;BME280;40313;50.308;30.374;2022-12-29T03:06:41;100064.38;;;-0.82;100.00
54407;BME280;40313;50.308;30.374;2022-12-29T03:09:21;100061.81;;;-0.80;100.00
54407;BME280;40313;50.308;30.374;2022-12-29T03:11:58;100055.81;;;-0.75;100.00
54407;BME280;40313;50.308;30.374;2022-12-29T03:14:47;100053.28;;;-0.79;100.00
54407;BME280;40313;50.308;30.374;2022-12-29T03:17:42;100046.47;;;-0.90;100.00
54407;BME280;40313;50.308;30.374;2022-12-29T03:20:14;100055.06;;;-1.01;100.00
54407;BME280;40313;50.308;30.374;2022-12-29T03:22:46;100044.84;;;-1.18;100.00
54407;BME280;40313;50.308;30.374;2022-12-29T03:25:17;100037.16;;;-1.28;100.00
54407;BME280;40313;50.308;30.374;2022-12-29T03:27:50;100042.31;;;-1.38;100.00
54407;BME280;40313;50.308;30.374;2022-12-29T03:30:19;100037.19;;;-1.48;100.00
54407;BME280;40313;50.308;30.374;2022-12-29T03:32:50;100046.56;;;-1.54;100.00
54407;BME280;40313;50.308;30.374;2022-12-29T03:35:20;100045.75;;;-1.63;100.00
54407;BME280;40313;50.308;30.374;2022-12-29T03:37:51;100039.75;;;-1.66;100.00
54407;BME280;40313;50.308;30.374;2022-12-29T03:40:21;100045.72;;;-1.70;100.00
54407;BME280;40313;50.308;30.374;2022-12-29T03:42:49;100044.88;;;-1.71;100.00
54407;BME280;40313;50.308;30.374;2022-12-29T03:45:16;100051.69;;;-1.76;100.00
54407;BME280;40313;50.308;30.374;2022-12-29T03:47:43;100049.97;;;-1.80;100.00
54407;BME280;40313;50.308;30.374;2022-12-29T03:50:12;100044.88;;;-1.86;100.00
54407;BME280;40313;50.308;30.374;2022-12-29T03:52:39;100034.66;;;-1.96;100.00
54407;BME280;40313;50.308;30.374;2022-12-29T03:55:06;100044.88;;;-1.96;100.00
54407;BME280;40313;50.308;30.374;2022-12-29T03:57:33;100033.78;;;-1.99;100.00
54407;BME280;40313;50.308;30.374;2022-12-29T03:59:59;100043.16;;;-2.00;100.00
54407;BME280;40313;50.308;30.374;2022-12-29T04:02:26;100041.44;;;-2.01;100.00
54407;BME280;40313;50.308;30.374;2022-12-29T04:04:52;100032.94;;;-2.03;100.00
54407;BME280;40313;50.308;30.374;2022-12-29T04:07:20;100041.44;;;-2.04;100.00
54407;BME280;40313;50.308;30.374;2022-12-29T04:09:47;100033.78;;;-2.07;100.00
54407;BME280;40313;50.308;30.374;2022-12-29T04:12:13;100032.91;;;-2.06;100.00
54407;BME280;40313;50.308;30.374;2022-12-29T04:14:40;100033.78;;;-2.05;100.00
54407;BME280;40313;50.308;30.374;2022-12-29T04:17:06;100031.22;;;-2.04;100.00
54407;BME280;40313;50.308;30.374;2022-12-29T04:19:33;100029.50;;;-2.00;100.00
54407;BME280;40313;50.308;30.374;2022-12-29T04:21:59;100037.19;;;-1.96;100.00
54407;BME280;40313;50.308;30.374;2022-12-29T04:24:26;100038.91;;;-1.90;100.00
54407;BME280;40313;50.308;30.374;2022-12-29T04:26:53;100037.19;;;-1.80;100.00
54407;BME280;40313;50.308;30.374;2022-12-29T04:29:19;100044.88;;;-1.72;100.00
54407;BME280;40313;50.308;30.374;2022-12-29T04:31:46;100040.59;;;-1.67;100.00
54407;BME280;40313;50.308;30.374;2022-12-29T04:34:13;100034.63;;;-1.66;100.00
54407;BME280;40313;50.308;30.374;2022-12-29T04:36:39;100041.47;;;-1.65;100.00
54407;BME280;40313;50.308;30.374;2022-12-29T04:39:06;100035.47;;;-1.66;100.00
54407;BME280;40313;50.308;30.374;2022-12-29T04:41:34;100031.22;;;-1.64;100.00
54407;BME280;40313;50.308;30.374;2022-12-29T04:44:00;100033.78;;;-1.59;100.00
54407;BME280;40313;50.308;30.374;2022-12-29T04:46:27;100032.09;;;-1.52;100.00
54407;BME280;40313;50.308;30.374;2022-12-29T04:48:53;100021.00;;;-1.48;100.00
54407;BME280;40313;50.308;30.374;2022-12-29T04:51:20;100021.00;;;-1.45;100.00
54407;BME280;40313;50.308;30.374;2022-12-29T04:53:46;100018.44;;;-1.48;100.00
54407;BME280;40313;50.308;30.374;2022-12-29T04:56:13;100022.69;;;-1.52;100.00
54407;BME280;40313;50.308;30.374;2022-12-29T04:58:41;100018.44;;;-1.56;100.00
54407;BME280;40313;50.308;30.374;2022-12-29T05:01:07;100017.59;;;-1.63;100.00
54407;BME280;40313;50.308;30.374;2022-12-29T05:03:34;100021.00;;;-1.68;100.00
54407;BME280;40313;50.308;30.374;2022-12-29T05:06:00;100023.53;;;-1.75;100.00
54407;BME280;40313;50.308;30.374;2022-12-29T05:08:27;100024.41;;;-1.83;100.00
54407;BME280;40313;50.308;30.374;2022-12-29T05:10:53;100024.41;;;-1.89;100.00
54407;BME280;40313;50.308;30.374;2022-12-29T05:13:20;100020.97;;;-1.95;100.00
54407;BME280;40313;50.308;30.374;2022-12-29T05:15:49;100027.81;;;-2.00;100.00
54407;BME280;40313;50.308;30.374;2022-12-29T05:18:18;100024.38;;;-2.08;100.00
54407;BME280;40313;50.308;30.374;2022-12-29T05:20:45;100026.06;;;-2.10;100.00
54407;BME280;40313;50.308;30.374;2022-12-29T05:23:13;100026.06;;;-2.13;100.00
54407;BME280;40313;50.308;30.374;2022-12-29T05:25:39;100032.03;;;-2.17;100.00
54407;BME280;40313;50.308;30.374;2022-12-29T05:28:06;100031.19;;;-2.19;100.00
54407;BME280;40313;50.308;30.374;2022-12-29T05:30:33;100034.59;;;-2.17;100.00
54407;BME280;40313;50.308;30.374;2022-12-29T05:33:01;100037.13;;;-2.19;100.00
54407;BME280;40313;50.308;30.374;2022-12-29T05:35:28;100032.91;;;-2.20;100.00
54407;BME280;40313;50.308;30.374;2022-12-29T05:37:54;100031.19;;;-2.22;100.00
54407;BME280;40313;50.308;30.374;2022-12-29T05:40:21;100032.91;;;-2.21;100.00
54407;BME280;40313;50.308;30.374;2022-12-29T05:42:47;100035.44;;;-2.17;100.00
54407;BME280;40313;50.308;30.374;2022-12-29T05:45:14;100042.28;;;-2.06;100.00
54407;BME280;40313;50.308;30.374;2022-12-29T05:47:40;100042.28;;;-2.00;100.00
54407;BME280;40313;50.308;30.374;2022-12-29T05:50:08;100049.13;;;-1.90;100.00
54407;BME280;40313;50.308;30.374;2022-12-29T05:52:44;100036.34;;;-1.85;100.00
54407;BME280;40313;50.308;30.374;2022-12-29T05:55:11;100038.06;;;-1.81;100.00
54407;BME280;40313;50.308;30.374;2022-12-29T05:57:38;100022.72;;;-1.80;100.00
54407;BME280;40313;50.308;30.374;2022-12-29T06:00:06;100021.88;;;-1.76;100.00
54407;BME280;40313;50.308;30.374;2022-12-29T06:02:33;100018.47;;;-1.70;100.00
54407;BME280;40313;50.308;30.374;2022-12-29T06:05:00;100012.47;;;-1.66;100.00
54407;BME280;40313;50.308;30.374;2022-12-29T06:07:28;100013.31;;;-1.61;100.00
54407;BME280;40313;50.308;30.374;2022-12-29T06:09:55;100016.75;;;-1.57;100.00
54407;BME280;40313;50.308;30.374;2022-12-29T06:12:22;100009.06;;;-1.52;100.00
54407;BME280;40313;50.308;30.374;2022-12-29T06:14:48;100015.00;;;-1.50;100.00
54407;BME280;40313;50.308;30.374;2022-12-29T06:17:15;100010.75;;;-1.47;100.00
54407;BME280;40313;50.308;30.374;2022-12-29T06:19:41;100009.91;;;-1.41;100.00
54407;BME280;40313;50.308;30.374;2022-12-29T06:22:09;100004.78;;;-1.38;100.00
54407;BME280;40313;50.308;30.374;2022-12-29T06:24:38;100020.09;;;-1.32;100.00
54407;BME280;40313;50.308;30.374;2022-12-29T06:27:05;100015.00;;;-1.24;100.00
54407;BME280;40313;50.308;30.374;2022-12-29T06:29:31;100024.34;;;-1.15;100.00
54407;BME280;40313;50.308;30.374;2022-12-29T06:31:58;100021.78;;;-1.09;100.00
54407;BME280;40313;50.308;30.374;2022-12-29T06:34:25;100021.75;;;-1.05;100.00
54407;BME280;40313;50.308;30.374;2022-12-29T06:36:51;100014.94;;;-1.02;100.00
54407;BME280;40313;50.308;30.374;2022-12-29T06:39:18;100016.63;;;-0.97;100.00
54407;BME280;40313;50.308;30.374;2022-12-29T06:41:46;100027.69;;;-0.87;100.00
54407;BME280;40313;50.308;30.374;2022-12-29T06:44:13;100024.22;;;-0.75;100.00
54407;BME280;40313;50.308;30.374;2022-12-29T06:46:40;100014.81;;;-0.65;100.00
54407;BME280;40313;50.308;30.374;2022-12-29T06:49:06;100030.09;;;-0.55;100.00
54407;BME280;40313;50.308;30.374;2022-12-29T06:51:33;100034.34;;;-0.49;100.00
54407;BME280;40313;50.308;30.374;2022-12-29T06:54:00;100024.94;;;-0.41;100.00
54407;BME280;40313;50.308;30.374;2022-12-29T06:56:26;100023.19;;;-0.40;100.00
54407;BME280;40313;50.308;30.374;2022-12-29T06:58:54;100029.16;;;-0.35;100.00
54407;BME280;40313;50.308;30.374;2022-12-29T07:01:21;100020.59;;;-0.28;100.00
54407;BME280;40313;50.308;30.374;2022-12-29T07:03:48;100028.25;;;-0.19;100.00
54407;BME280;40313;50.308;30.374;2022-12-29T07:06:15;100027.28;;;-0.05;100.00
54407;BME280;40313;50.308;30.374;2022-12-29T07:08:41;100035.78;;;0.03;100.00
54407;BME280;40313;50.308;30.374;2022-12-29T07:11:08;100023.75;;;0.08;100.00
54407;BME280;40313;50.308;30.374;2022-12-29T07:13:35;100034.88;;;0.10;100.00
54407;BME280;40313;50.308;30.374;2022-12-29T07:16:06;100039.19;;;0.05;100.00
54407;BME280;40313;50.308;30.374;2022-12-29T07:18:33;100031.53;;;0.01;100.00
54407;BME280;40313;50.308;30.374;2022-12-29T07:21:00;100034.13;;;-0.07;100.00
54407;BME280;40313;50.308;30.374;2022-12-29T07:23:27;100028.19;;;-0.12;100.00
54407;BME280;40313;50.308;30.374;2022-12-29T07:25:59;100020.50;;;-0.12;100.00
54407;BME280;40313;50.308;30.374;2022-12-29T07:28:27;100017.88;;;-0.08;100.00
54407;BME280;40313;50.308;30.374;2022-12-29T07:30:54;100005.88;;;0.02;100.00
54407;BME280;40313;50.308;30.374;2022-12-29T07:33:22;100011.72;;;0.18;100.00
54407;BME280;40313;50.308;30.374;2022-12-29T07:35:48;100006.47;;;0.35;100.00
54407;BME280;40313;50.308;30.374;2022-12-29T07:38:15;99997.78;;;0.51;100.00
54407;BME280;40313;50.308;30.374;2022-12-29T07:40:42;100000.16;;;0.68;100.00
54407;BME280;40313;50.308;30.374;2022-12-29T07:43:09;100005.16;;;0.82;100.00
54407;BME280;40313;50.308;30.374;2022-12-29T07:45:36;99997.31;;;0.95;100.00
54407;BME280;40313;50.308;30.374;2022-12-29T07:48:04;99998.81;;;1.13;100.00
54407;BME280;40313;50.308;30.374;2022-12-29T07:50:34;100000.41;;;1.25;100.00
54407;BME280;40313;50.308;30.374;2022-12-29T07:53:01;100002.81;;;1.35;100.00
54407;BME280;40313;50.308;30.374;2022-12-29T07:55:28;99996.72;;;1.44;100.00
54407;BME280;40313;50.308;30.374;2022-12-29T07:57:55;99988.91;;;1.52;100.00
54407;BME280;40313;50.308;30.374;2022-12-29T08:00:22;99987.09;;;1.57;100.00
54407;BME280;40313;50.308;30.374;2022-12-29T08:02:49;99993.06;;;1.61;100.00
54407;BME280;40313;50.308;30.374;2022-12-29T08:05:15;99999.91;;;1.62;100.00
54407;BME280;40313;50.308;30.374;2022-12-29T08:07:44;99999.88;;;1.65;100.00
54407;BME280;40313;50.308;30.374;2022-12-29T08:10:11;100001.50;;;1.72;100.00
54407;BME280;40313;50.308;30.374;2022-12-29T08:12:38;99998.84;;;1.77;100.00
54407;BME280;40313;50.308;30.374;2022-12-29T08:15:06;99994.47;;;1.83;100.00
54407;BME280;40313;50.308;30.374;2022-12-29T08:17:33;100005.47;;;1.93;100.00
54407;BME280;40313;50.308;30.374;2022-12-29T08:20:00;100002.72;;;2.04;100.00
54407;BME280;40313;50.308;30.374;2022-12-29T08:22:26;99994.84;;;2.15;100.00
54407;BME280;40313;50.308;30.374;2022-12-29T08:24:54;99993.97;;;2.17;100.00
54407;BME280;40313;50.308;30.374;2022-12-29T08:27:21;99992.31;;;2.13;100.00
54407;BME280;40313;50.308;30.374;2022-12-29T08:29:48;99989.66;;;2.18;100.00
54407;BME280;40313;50.308;30.374;2022-12-29T08:32:15;99991.31;;;2.22;100.00
54407;BME280;40313;50.308;30.374;2022-12-29T08:34:41;99988.63;;;2.27;100.00
54407;BME280;40313;50.308;30.374;2022-12-29T08:37:08;99998.78;;;2.34;100.00
54407;BME280;40313;50.308;30.374;2022-12-29T08:39:34;100002.00;;;2.49;100.00
54407;BME280;40313;50.308;30.374;2022-12-29T08:42:02;100007.81;;;2.60;100.00
54407;BME280;40313;50.308;30.374;2022-12-29T08:44:29;99998.13;;;2.74;100.00
54407;BME280;40313;50.308;30.374;2022-12-29T08:46:55;100009.03;;;2.89;100.00
54407;BME280;40313;50.308;30.374;2022-12-29T08:49:22;100008.06;;;2.94;100.00
54407;BME280;40313;50.308;30.374;2022-12-29T08:51:48;100003.63;;;3.01;100.00
54407;BME280;40313;50.308;30.374;2022-12-29T08:54:15;99992.22;;;3.13;100.00
54407;BME280;40313;50.308;30.374;2022-12-29T08:56:42;99990.56;;;3.10;100.00
54407;BME280;40313;50.308;30.374;2022-12-29T08:59:09;99999.75;;;3.22;100.00
54407;BME280;40313;50.308;30.374;2022-12-29T09:01:36;99992.84;;;3.26;100.00
54407;BME280;40313;50.308;30.374;2022-12-29T09:04:05;99991.84;;;3.32;100.00
54407;BME280;40313;50.308;30.374;2022-12-29T09:06:32;99997.75;;;3.37;100.00
54407;BME280;40313;50.308;30.374;2022-12-29T09:08:58;99995.97;;;3.40;100.00
54407;BME280;40313;50.308;30.374;2022-12-29T09:11:25;99995.00;;;3.46;100.00
54407;BME280;40313;50.308;30.374;2022-12-29T09:13:52;99989.81;;;3.48;100.00
54407;BME280;40313;50.308;30.374;2022-12-29T09:16:22;99994.97;;;3.48;100.00
54407;BME280;40313;50.308;30.374;2022-12-29T09:18:49;99992.31;;;3.51;100.00
54407;BME280;40313;50.308;30.374;2022-12-29T09:21:15;99988.81;;;3.53;100.00
54407;BME280;40313;50.308;30.374;2022-12-29T09:23:42;99977.69;;;3.50;100.00
54407;BME280;40313;50.308;30.374;2022-12-29T09:26:09;99970.84;;;3.49;100.00
54407;BME280;40313;50.308;30.374;2022-12-29T09:28:35;99969.19;;;3.46;100.00
54407;BME280;40313;50.308;30.374;2022-12-29T09:31:02;99971.78;;;3.46;100.00
54407;BME280;40313;50.308;30.374;2022-12-29T09:33:30;99976.09;;;3.44;100.00
54407;BME280;40313;50.308;30.374;2022-12-29T09:35:59;99966.69;;;3.41;100.00
54407;BME280;40313;50.308;30.374;2022-12-29T09:38:26;99969.16;;;3.48;100.00
54407;BME280;40313;50.308;30.374;2022-12-29T09:40:54;99957.03;;;3.51;100.00
54407;BME280;40313;50.308;30.374;2022-12-29T09:43:42;99950.13;;;3.53;100.00
54407;BME280;40313;50.308;30.374;2022-12-29T09:46:19;99962.13;;;3.54;100.00
54407;BME280;40313;50.308;30.374;2022-12-29T09:48:55;99955.13;;;3.59;100.00
54407;BME280;40313;50.308;30.374;2022-12-29T09:51:26;99951.69;;;3.60;100.00
54407;BME280;40313;50.308;30.374;2022-12-29T09:53:57;99946.53;;;3.60;100.00
54407;BME280;40313;50.308;30.374;2022-12-29T09:56:25;99936.31;;;3.54;100.00
54407;BME280;40313;50.308;30.374;2022-12-29T09:58:56;99934.66;;;3.53;100.00
54407;BME280;40313;50.308;30.374;2022-12-29T10:01:29;99931.25;;;3.51;100.00
54407;BME280;40313;50.308;30.374;2022-12-29T10:04:00;99931.38;;;3.45;100.00
54407;BME280;40313;50.308;30.374;2022-12-29T10:06:33;99916.97;;;3.36;100.00
54407;BME280;40313;50.308;30.374;2022-12-29T10:09:09;99912.56;;;3.40;100.00
54407;BME280;40313;50.308;30.374;2022-12-29T10:11:57;99909.06;;;3.44;100.00
54407;BME280;40313;50.308;30.374;2022-12-29T10:14:40;99900.50;;;3.42;100.00
54407;BME280;40313;50.308;30.374;2022-12-29T10:17:18;99898.66;;;3.47;100.00
54407;BME280;40313;50.308;30.374;2022-12-29T10:20:00;99891.88;;;3.43;100.00
54407;BME280;40313;50.308;30.374;2022-12-29T10:22:42;99897.72;;;3.51;100.00
54407;BME280;40313;50.308;30.374;2022-12-29T10:25:12;99897.63;;;3.54;100.00
54407;BME280;40313;50.308;30.374;2022-12-29T10:27:42;99896.69;;;3.58;100.00
54407;BME280;40313;50.308;30.374;2022-12-29T10:30:12;99893.22;;;3.59;100.00
54407;BME280;40313;50.308;30.374;2022-12-29T10:32:41;99893.31;;;3.56;100.00
54407;BME280;40313;50.308;30.374;2022-12-29T10:35:16;99890.81;;;3.53;100.00
54407;BME280;40313;50.308;30.374;2022-12-29T10:37:49;99892.34;;;3.60;100.00
54407;BME280;40313;50.308;30.374;2022-12-29T10:40:23;99871.63;;;3.63;100.00
54407;BME280;40313;50.308;30.374;2022-12-29T10:42:54;99885.28;;;3.67;100.00
54407;BME280;40313;50.308;30.374;2022-12-29T10:45:22;99890.44;;;3.69;100.00
54407;BME280;40313;50.308;30.374;2022-12-29T10:47:55;99886.97;;;3.70;100.00
54407;BME280;40313;50.308;30.374;2022-12-29T10:50:26;99886.00;;;3.74;100.00
54407;BME280;40313;50.308;30.374;2022-12-29T10:52:56;99884.16;;;3.79;100.00
54407;BME280;40313;50.308;30.374;2022-12-29T10:55:27;99874.72;;;3.78;100.00
54407;BME280;40313;50.308;30.374;2022-12-29T10:57:55;99868.78;;;3.76;100.00
54407;BME280;40313;50.308;30.374;2022-12-29T11:00:23;99877.31;;;3.78;100.00
54407;BME280;40313;50.308;30.374;2022-12-29T11:03:06;99874.59;;;3.83;100.00
54407;BME280;40313;50.308;30.374;2022-12-29T11:05:41;99864.28;;;3.83;100.00
54407;BME280;40313;50.308;30.374;2022-12-29T11:08:14;99860.00;;;3.83;100.00
54407;BME280;40313;50.308;30.374;2022-12-29T11:10:43;99861.00;;;3.77;100.00
54407;BME280;40313;50.308;30.374;2022-12-29T11:13:12;99867.31;;;3.64;100.00
54407;BME280;40313;50.308;30.374;2022-12-29T11:15:41;99859.50;;;3.67;100.00
54407;BME280;40313;50.308;30.374;2022-12-29T11:18:18;99851.75;;;3.67;100.00
54407;BME280;40313;50.308;30.374;2022-12-29T11:20:47;99863.75;;;3.70;100.00
54407;BME280;40313;50.308;30.374;2022-12-29T11:23:31;99868.22;;;3.63;100.00
54407;BME280;40313;50.308;30.374;2022-12-29T11:26:15;99864.06;;;3.57;100.00
54407;BME280;40313;50.308;30.374;2022-12-29T11:28:43;99869.41;;;3.48;100.00
54407;BME280;40313;50.308;30.374;2022-12-29T11:31:12;99875.47;;;3.45;100.00
54407;BME280;40313;50.308;30.374;2022-12-29T11:33:41;99873.09;;;3.38;100.00
54407;BME280;40313;50.308;30.374;2022-12-29T11:36:11;99885.84;;;3.44;100.00
54407;BME280;40313;50.308;30.374;2022-12-29T11:38:41;99881.63;;;3.40;100.00
54407;BME280;40313;50.308;30.374;2022-12-29T11:41:11;99879.13;;;3.37;100.00
54407;BME280;40313;50.308;30.374;2022-12-29T11:43:41;99881.72;;;3.37;100.00
54407;BME280;40313;50.308;30.374;2022-12-29T11:46:14;99885.16;;;3.36;100.00
54407;BME280;40313;50.308;30.374;2022-12-29T11:48:42;99883.50;;;3.35;100.00
54407;BME280;40313;50.308;30.374;2022-12-29T11:51:11;99874.88;;;3.34;100.00
54407;BME280;40313;50.308;30.374;2022-12-29T11:53:41;99884.41;;;3.32;100.00
54407;BME280;40313;50.308;30.374;2022-12-29T11:56:12;99883.56;;;3.32;100.00
54407;BME280;40313;50.308;30.374;2022-12-29T11:58:40;99885.31;;;3.29;100.00
54407;BME280;40313;50.308;30.374;2022-12-29T12:01:13;99880.22;;;3.26;100.00
54407;BME280;40313;50.308;30.374;2022-12-29T12:03:45;99888.94;;;3.21;100.00
54407;BME280;40313;50.308;30.374;2022-12-29T12:06:16;99898.50;;;3.16;100.00
54407;BME280;40313;50.308;30.374;2022-12-29T12:08:53;99891.66;;;3.15;100.00
54407;BME280;40313;50.308;30.374;2022-12-29T12:11:24;99896.84;;;3.13;100.00
54407;BME280;40313;50.308;30.374;2022-12-29T12:14:00;99893.41;;;3.13;100.00
54407;BME280;40313;50.308;30.374;2022-12-29T12:16:34;99898.63;;;3.09;100.00
54407;BME280;40313;50.308;30.374;2022-12-29T12:19:04;99897.81;;;3.09;100.00
54407;BME280;40313;50.308;30.374;2022-12-29T12:21:39;99901.38;;;3.02;100.00
54407;BME280;40313;50.308;30.374;2022-12-29T12:24:30;99897.97;;;3.00;100.00
54407;BME280;40313;50.308;30.374;2022-12-29T12:27:02;99896.31;;;2.99;100.00
54407;BME280;40313;50.308;30.374;2022-12-29T12:29:37;99897.97;;;3.00;100.00
54407;BME280;40313;50.308;30.374;2022-12-29T12:32:11;99886.84;;;2.99;100.00
54407;BME280;40313;50.308;30.374;2022-12-29T12:34:42;99879.94;;;3.00;100.00
54407;BME280;40313;50.308;30.374;2022-12-29T12:37:38;99867.13;;;2.97;100.00
54407;BME280;40313;50.308;30.374;2022-12-29T12:40:31;99873.19;;;2.94;100.00
54407;BME280;40313;50.308;30.374;2022-12-29T12:43:13;99874.97;;;2.92;100.00
54407;BME280;40313;50.308;30.374;2022-12-29T12:45:50;99860.47;;;2.86;100.00
54407;BME280;40313;50.308;30.374;2022-12-29T12:48:33;99854.50;;;2.84;100.00
54407;BME280;40313;50.308;30.374;2022-12-29T12:51:09;99850.44;;;2.72;100.00
54407;BME280;40313;50.308;30.374;2022-12-29T12:53:53;99851.31;;;2.71;100.00
54407;BME280;40313;50.308;30.374;2022-12-29T12:56:47;99838.63;;;2.64;100.00